Time;durP1;ratioP1;P1;durP2;ratioP2;P2;SDS_P1;SDS_P2;PMS_P1;PMS_P2;Temp;Humidity;BMP_temperature;BMP_pressure;BME280_temperature;BME280_humidity;BME280_pressure;Samples;Min_cycle;Max_cycle;Signal;HPM_P1;HPM_P2
2022/04/17 00:02:05;;;;;;;1.98;1.60;;;10.60;90.30;;;;;;5062040;28;20072;-66
2022/04/17 00:04:31;;;;;;;2.10;1.70;;;;;;;;;;5061761;28;20047;-66
2022/04/17 00:06:57;;;;;;;2.45;1.88;;;10.50;99.90;;;;;;5063151;28;20040;-66
2022/04/17 00:09:23;;;;;;;1.80;1.60;;;;;;;;;;5061732;28;20087;-66
2022/04/17 00:11:49;;;;;;;5.20;1.98;;;10.80;99.80;;;;;;5061538;28;20127;-66
2022/04/17 00:14:14;;;;;;;2.50;1.83;;;10.50;90.50;;;;;;5062533;28;20135;-65
2022/04/17 00:16:41;;;;;;;2.92;1.88;;;;;;;;;;5061111;28;20494;-67
2022/04/17 00:19:09;;;;;;;1.90;1.55;;;10.30;95.50;;;;;;5061962;28;20036;-66
2022/04/17 00:21:35;;;;;;;3.15;1.67;;;10.40;93.20;;;;;;5062774;28;20082;-66
2022/04/17 00:24:01;;;;;;;1.88;1.70;;;10.40;90.50;;;;;;5061033;28;20487;-64
2022/04/17 00:26:27;;;;;;;2.30;1.90;;;10.40;90.70;;;;;;5061325;28;20099;-64
2022/04/17 00:28:52;;;;;;;2.75;1.85;;;10.40;90.60;;;;;;5062733;28;20044;-65
2022/04/17 00:31:18;;;;;;;2.17;1.70;;;10.40;91.00;;;;;;5060758;28;20029;-65
2022/04/17 00:33:44;;;;;;;2.30;1.60;;;10.20;91.10;;;;;;5061744;28;20083;-65
2022/04/17 00:36:10;;;;;;;2.60;2.00;;;10.10;91.10;;;;;;5062313;28;20029;-65
2022/04/17 00:38:35;;;;;;;3.40;2.05;;;10.10;91.70;;;;;;5060651;28;20047;-65
2022/04/17 00:41:01;;;;;;;1.90;1.40;;;10.10;91.20;;;;;;5062160;28;20041;-65
2022/04/17 00:43:32;;;;;;;2.25;2.05;;;10.20;91.10;;;;;;5061891;28;20049;-65
2022/04/17 00:45:58;;;;;;;4.10;2.40;;;10.10;91.10;;;;;;5060381;28;20132;-65
2022/04/17 00:48:24;;;;;;;3.58;2.33;;;9.80;91.20;;;;;;5061751;28;20174;-65
2022/04/17 00:50:53;;;;;;;2.10;1.67;;;9.70;91.60;;;;;;5061915;28;20509;-65
2022/04/17 00:53:24;;;;;;;3.03;2.10;;;9.70;91.70;;;;;;5060813;28;20446;-65
2022/04/17 00:55:51;;;;;;;2.67;1.95;;;9.60;91.70;;;;;;5060880;28;20185;-65
2022/04/17 00:58:18;;;;;;;3.00;2.15;;;9.50;91.90;;;;;;5062233;28;20189;-65
2022/04/17 01:00:45;;;;;;;2.47;2.10;;;9.70;91.70;;;;;;5061262;28;20315;-65
2022/04/17 01:03:12;;;;;;;6.50;2.53;;;9.80;91.80;;;;;;5060736;28;20573;-65
2022/04/17 01:05:42;;;;;;;4.22;2.22;;;9.50;92.00;;;;;;5060627;28;20369;-65
2022/04/17 01:08:13;;;;;;;3.00;1.98;;;9.50;91.90;;;;;;5061220;28;20048;-65
2022/04/17 01:10:39;;;;;;;2.75;2.20;;;9.60;91.90;;;;;;5060406;28;20403;-66
2022/04/17 01:13:08;;;;;;;5.50;2.40;;;9.50;92.10;;;;;;5061584;28;20048;-66
2022/04/17 01:15:36;;;;;;;4.60;2.28;;;9.60;91.80;;;;;;5061090;28;20467;-65
2022/04/17 01:18:02;;;;;;;3.33;1.85;;;9.50;91.80;;;;;;5062064;28;20090;-65
2022/04/17 01:20:28;;;;;;;2.40;1.77;;;9.60;91.60;;;;;;5063021;28;20072;-66
2022/04/17 01:26:56;;;;;;;4.95;2.08;;;9.60;91.70;;;;;;5062330;28;20074;-65
2022/04/17 01:28:26;;;;;;;3.08;2.38;;;9.40;92.00;;;;;;5044385;28;20115;-65
2022/04/17 01:30:56;;;;;;;3.40;2.08;;;9.40;91.80;;;;;;5061491;28;20080;-66
2022/04/17 01:33:23;;;;;;;3.05;2.08;;;9.30;91.70;;;;;;5059433;28;20475;-64
2022/04/17 01:35:49;;;;;;;3.50;2.40;;;9.20;92.00;;;;;;5069398;28;20044;-64
2022/04/17 01:38:15;;;;;;;3.15;2.08;;;9.30;92.10;;;;;;5065487;28;20125;-64
2022/04/17 01:40:41;;;;;;;2.50;2.05;;;9.20;91.90;;;;;;5068797;28;20048;-65
2022/04/17 01:43:08;;;;;;;5.50;2.30;;;9.00;92.20;;;;;;5069138;28;20113;-65
2022/04/17 01:45:34;;;;;;;2.53;1.90;;;8.90;92.20;;;;;;5067561;28;20059;-65
2022/04/17 01:48:00;;;;;;;2.70;2.10;;;9.10;92.20;;;;;;5061451;28;20800;-64
2022/04/17 01:50:27;;;;;;;3.08;2.20;;;9.00;92.10;;;;;;5063909;28;20538;-65
2022/04/17 01:52:53;;;;;;;2.83;2.10;;;9.00;92.30;;;;;;5067916;28;20052;-65
2022/04/17 01:55:19;;;;;;;5.43;2.42;;;9.00;92.10;;;;;;5069039;28;20040;-65
2022/04/17 01:57:46;;;;;;;2.38;2.08;;;9.00;92.10;;;;;;5068923;28;20123;-64
2022/04/17 02:00:12;;;;;;;2.78;2.05;;;9.00;92.10;;;;;;5068945;28;20459;-64
2022/04/17 02:02:38;;;;;;;3.20;2.40;;;8.90;92.20;;;;;;5069020;28;20119;-65
2022/04/17 02:05:04;;;;;;;5.07;2.10;;;9.00;92.20;;;;;;5068711;28;20278;-65
2022/04/17 02:07:30;;;;;;;3.58;2.10;;;8.90;92.10;;;;;;5068772;28;20036;-64
2022/04/17 02:09:56;;;;;;;2.95;2.40;;;9.00;92.20;;;;;;5069328;28;20454;-65
2022/04/17 02:12:22;;;;;;;2.83;2.17;;;9.00;92.30;;;;;;5072278;28;20052;-65
2022/04/17 02:14:48;;;;;;;2.58;2.20;;;8.90;92.30;;;;;;5072192;28;20063;-65
2022/04/17 02:17:14;;;;;;;3.65;2.10;;;8.90;92.40;;;;;;5071882;28;20249;-65
2022/04/17 02:19:40;;;;;;;2.85;2.10;;;;;;;;;;5069577;28;20415;-66
2022/04/17 02:22:06;;;;;;;6.18;2.35;;;8.80;92.20;;;;;;5063696;28;20036;-64
2022/04/17 02:24:32;;;;;;;4.03;2.47;;;8.80;92.40;;;;;;5064881;28;20174;-65
2022/04/17 02:26:58;;;;;;;2.97;2.10;;;8.90;92.30;;;;;;5062984;28;20654;-65
2022/04/17 02:29:24;;;;;;;2.65;2.17;;;8.80;92.40;;;;;;5064354;28;20036;-65
2022/04/17 02:31:49;;;;;;;3.35;2.05;;;8.60;92.50;;;;;;5064519;28;20404;-65
2022/04/17 02:34:15;;;;;;;2.80;2.25;;;8.50;92.70;;;;;;5062413;28;20090;-66
2022/04/17 02:36:41;;;;;;;3.17;2.15;;;8.50;93.30;;;;;;5064123;28;20036;-65
2022/04/17 02:39:07;;;;;;;3.65;2.08;;;8.40;93.10;;;;;;5063946;28;20044;-65
2022/04/17 02:41:32;;;;;;;3.63;2.30;;;8.40;97.90;;;;;;5062979;28;20396;-65
2022/04/17 02:43:59;;;;;;;2.83;2.17;;;;;;;;;;5064298;28;20053;-66
2022/04/17 02:49:09;;;;;;;4.45;2.38;;;8.50;99.70;;;;;;5063988;28;20546;-65
2022/04/17 02:51:35;;;;;;;2.15;1.92;;;8.60;94.80;;;;;;5062734;28;20045;-65
2022/04/17 02:54:01;;;;;;;3.10;2.40;;;8.40;94.50;;;;;;5064324;28;20454;-65
2022/04/17 02:56:29;;;;;;;2.75;2.15;;;8.30;99.90;;;;;;5063871;28;20123;-66
2022/04/17 02:58:55;;;;;;;2.40;2.20;;;;;;;;;;5062354;28;20037;-66
2022/04/17 03:06:54;;;;;;;2.30;2.10;;;8.30;93.30;;;;;;5064424;28;20040;-64
2022/04/17 03:09:20;;;;;;;2.45;2.03;;;7.80;94.10;;;;;;5062472;28;20048;-64
2022/04/17 03:11:45;;;;;;;4.10;2.45;;;7.80;94.20;;;;;;5063449;28;20039;-64
2022/04/17 03:14:11;;;;;;;2.65;2.00;;;7.90;94.30;;;;;;5063637;28;20036;-64
2022/04/17 03:16:37;;;;;;;2.80;2.05;;;8.00;94.40;;;;;;5061714;28;20045;-64
2022/04/17 03:19:03;;;;;;;2.20;1.95;;;7.80;94.60;;;;;;5063615;28;20036;-64
2022/04/17 03:21:29;;;;;;;3.78;2.80;;;7.80;94.60;;;;;;5056533;28;20051;-64
2022/04/17 03:23:55;;;;;;;4.00;2.13;;;7.80;94.50;;;;;;5054428;28;20587;-65
2022/04/17 03:26:20;;;;;;;2.83;2.33;;;7.70;94.60;;;;;;5054282;28;20052;-64
2022/04/17 03:28:47;;;;;;;3.40;2.50;;;7.70;94.50;;;;;;5054248;28;20029;-64
2022/04/17 03:31:13;;;;;;;3.60;2.80;;;7.70;94.50;;;;;;5054057;28;20638;-64
2022/04/17 03:33:38;;;;;;;2.90;2.40;;;7.70;94.40;;;;;;5054104;28;20041;-64
2022/04/17 03:36:04;;;;;;;3.38;2.47;;;7.80;94.30;;;;;;5054186;28;20110;-64
2022/04/17 03:38:33;;;;;;;3.38;2.47;;;7.70;94.40;;;;;;5054138;28;20063;-64
2022/04/17 03:40:59;;;;;;;3.38;2.55;;;7.60;94.50;;;;;;5054032;28;20520;-64
2022/04/17 03:43:25;;;;;;;2.95;2.15;;;7.60;94.60;;;;;;5054062;28;20045;-64
2022/04/17 03:45:51;;;;;;;3.75;2.63;;;7.50;94.70;;;;;;5053806;28;20051;-64
2022/04/17 03:48:18;;;;;;;4.15;2.88;;;7.50;94.70;;;;;;5053530;28;20090;-64
2022/04/17 03:50:44;;;;;;;2.70;2.17;;;7.40;94.80;;;;;;5059149;28;20037;-64
2022/04/17 03:53:10;;;;;;;3.72;2.53;;;7.30;95.00;;;;;;5053543;28;20043;-64
2022/04/17 03:55:36;;;;;;;5.85;2.97;;;7.30;95.30;;;;;;5052235;28;20056;-64
2022/04/17 03:58:02;;;;;;;2.92;2.30;;;7.30;95.30;;;;;;5053407;28;20385;-64
2022/04/17 04:00:28;;;;;;;3.92;2.67;;;7.50;95.20;;;;;;5053252;28;20037;-64
2022/04/17 04:02:54;;;;;;;3.60;2.22;;;7.50;95.30;;;;;;5053256;28;20126;-64
2022/04/17 04:05:20;;;;;;;3.10;2.20;;;7.30;95.50;;;;;;5053310;28;20047;-64
2022/04/17 04:07:46;;;;;;;3.63;2.47;;;7.30;95.60;;;;;;5053470;28;20033;-64
2022/04/17 04:10:13;;;;;;;3.45;2.63;;;7.30;95.70;;;;;;5053537;28;20508;-64
2022/04/17 04:12:39;;;;;;;2.83;2.15;;;7.30;95.50;;;;;;5053439;28;20037;-64
2022/04/17 04:15:06;;;;;;;3.28;2.40;;;7.30;96.20;;;;;;5053064;28;20412;-64
2022/04/17 04:17:34;;;;;;;2.90;2.20;;;7.10;96.50;;;;;;5055531;28;20103;-64
2022/04/17 04:20:00;;;;;;;4.18;2.75;;;6.90;96.60;;;;;;5053173;28;20039;-64
2022/04/17 04:22:26;;;;;;;3.08;1.92;;;7.00;97.00;;;;;;5053287;28;20064;-64
2022/04/17 04:24:52;;;;;;;2.50;2.30;;;7.10;96.90;;;;;;5053350;28;20083;-64
2022/04/17 04:30:03;;;;;;;3.70;2.65;;;7.00;96.70;;;;;;5053090;28;20047;-64
2022/04/17 04:32:29;;;;;;;4.50;3.05;;;6.90;96.80;;;;;;5052223;28;20037;-64
2022/04/17 04:35:01;;;;;;;3.90;2.70;;;6.70;97.10;;;;;;5052842;28;20094;-64
2022/04/17 04:37:27;;;;;;;4.88;2.40;;;6.80;96.90;;;;;;5053084;28;20045;-64
2022/04/17 04:39:53;;;;;;;3.65;2.20;;;6.80;97.10;;;;;;5053049;28;20080;-65
2022/04/17 04:42:22;;;;;;;3.42;2.70;;;6.60;97.90;;;;;;5052962;28;20068;-64
2022/04/17 04:46:06;;;;;;;3.80;2.75;;;6.60;98.10;;;;;;5052884;28;20049;-64
2022/04/17 04:47:34;;;;;;;7.30;2.65;;;6.70;98.00;;;;;;5052749;28;20131;-64
2022/04/17 04:50:00;;;;;;;3.03;2.72;;;6.70;98.20;;;;;;5052836;28;20120;-64
2022/04/17 04:52:26;;;;;;;2.75;2.42;;;6.70;98.40;;;;;;5052670;28;20127;-64
2022/04/17 04:54:52;;;;;;;3.35;2.65;;;6.70;98.50;;;;;;5052534;28;20508;-64
2022/04/17 04:57:17;;;;;;;2.47;2.13;;;6.70;98.40;;;;;;5052682;28;20095;-64
2022/04/17 04:59:43;;;;;;;2.80;2.22;;;6.60;98.40;;;;;;5052732;28;20056;-64
2022/04/17 05:02:10;;;;;;;3.50;2.63;;;6.70;98.50;;;;;;5052706;28;20106;-64
2022/04/17 05:04:35;;;;;;;4.90;2.60;;;6.50;98.90;;;;;;5052441;28;20047;-64
2022/04/17 05:07:01;;;;;;;4.97;3.05;;;6.50;99.10;;;;;;5052562;28;20033;-65
2022/04/17 05:09:30;;;;;;;2.97;2.50;;;6.50;99.40;;;;;;5052524;28;20053;-65
2022/04/17 05:11:56;;;;;;;3.80;2.88;;;6.60;99.00;;;;;;5052505;28;20056;-65
2022/04/17 05:14:22;;;;;;;3.90;2.80;;;6.60;99.10;;;;;;5052447;28;20076;-64
2022/04/17 05:16:48;;;;;;;3.15;2.72;;;6.60;99.40;;;;;;5052642;28;20091;-65
2022/04/17 05:19:27;;;;;;;4.68;3.13;;;6.60;98.90;;;;;;5052207;28;20549;-64
2022/04/17 05:21:58;;;;;;;5.20;3.15;;;6.70;98.90;;;;;;5052162;28;20044;-64
2022/04/17 05:24:25;;;;;;;5.95;3.10;;;6.80;98.90;;;;;;5052545;28;20321;-64
2022/04/17 05:26:52;;;;;;;3.25;2.72;;;6.80;98.50;;;;;;5052572;28;20036;-64
2022/04/17 05:29:18;;;;;;;2.92;2.45;;;6.60;98.80;;;;;;5052560;28;20084;-65
2022/04/17 05:31:44;;;;;;;3.63;2.70;;;6.20;99.80;;;;;;5052817;28;20186;-65
2022/04/17 05:34:10;;;;;;;3.42;2.70;;;6.60;99.30;;;;;;5052297;28;20144;-65
2022/04/17 05:36:35;;;;;;;5.28;3.53;;;6.80;99.40;;;;;;5052441;28;20136;-64
2022/04/17 05:39:01;;;;;;;3.75;2.85;;;6.90;98.80;;;;;;5052558;28;20064;-64
2022/04/17 05:41:27;;;;;;;3.05;2.55;;;7.00;98.70;;;;;;5052626;28;20032;-64
2022/04/17 05:43:55;;;;;;;3.60;2.88;;;7.10;98.70;;;;;;5053400;28;20036;-64
2022/04/17 05:46:21;;;;;;;4.80;2.72;;;7.30;98.80;;;;;;5056203;28;20531;-64
2022/04/17 05:48:47;;;;;;;4.57;2.83;;;7.40;97.90;;;;;;5056031;28;20037;-64
2022/04/17 05:51:13;;;;;;;2.67;2.05;;;7.70;97.20;;;;;;5066099;28;20064;-64
2022/04/17 05:53:39;;;;;;;4.85;2.60;;;7.70;97.00;;;;;;5073466;28;20066;-64
2022/04/17 05:56:05;;;;;;;2.70;2.13;;;8.10;97.00;;;;;;5074170;28;20052;-64
2022/04/17 05:58:31;;;;;;;4.25;3.00;;;8.30;96.20;;;;;;5075936;28;20055;-64
2022/04/17 06:00:57;;;;;;;3.35;2.70;;;8.80;97.60;;;;;;5075824;28;20491;-64
2022/04/17 06:03:23;;;;;;;3.08;2.40;;;9.10;96.10;;;;;;5075835;28;20043;-64
2022/04/17 06:05:49;;;;;;;3.15;2.10;;;9.00;95.50;;;;;;5075997;28;20044;-64
2022/04/17 06:08:15;;;;;;;2.95;2.20;;;8.80;96.10;;;;;;5075834;28;20181;-64
2022/04/17 06:10:41;;;;;;;4.35;2.83;;;8.80;96.30;;;;;;5075803;28;20419;-64
2022/04/17 06:13:07;;;;;;;2.97;2.40;;;9.00;96.50;;;;;;5075698;28;20064;-64
2022/04/17 06:15:33;;;;;;;3.00;2.40;;;9.20;95.90;;;;;;5075797;28;20059;-64
2022/04/17 06:17:58;;;;;;;5.20;2.33;;;9.40;95.20;;;;;;5075435;28;20400;-64
2022/04/17 06:20:24;;;;;;;2.95;2.33;;;9.80;94.70;;;;;;5075596;28;20075;-64
2022/04/17 06:22:50;;;;;;;2.78;2.28;;;9.80;93.80;;;;;;5075590;28;20373;-64
2022/04/17 06:25:16;;;;;;;3.50;2.50;;;9.30;93.80;;;;;;5075651;28;20060;-64
2022/04/17 06:27:47;;;;;;;4.47;2.60;;;9.30;94.20;;;;;;5075299;28;20435;-64
2022/04/17 06:30:15;;;;;;;3.40;2.42;;;9.40;94.10;;;;;;5075088;28;20115;-64
2022/04/17 06:32:41;;;;;;;2.70;2.13;;;9.30;94.30;;;;;;5075210;28;20090;-64
2022/04/17 06:35:11;;;;;;;3.88;2.30;;;9.90;94.30;;;;;;5075230;28;20056;-64
2022/04/17 06:37:58;;;;;;;3.45;2.42;;;9.90;93.50;;;;;;5075058;28;20037;-65
2022/04/17 06:40:32;;;;;;;2.40;2.00;;;10.20;94.20;;;;;;5075130;28;20071;-64
2022/04/17 06:43:00;;;;;;;5.93;2.22;;;10.40;93.80;;;;;;5075012;28;20040;-65
2022/04/17 06:45:26;;;;;;;2.60;1.92;;;10.30;93.70;;;;;;5075171;28;20547;-64
2022/04/17 06:47:52;;;;;;;3.65;2.50;;;10.60;92.90;;;;;;5075033;28;20127;-65
2022/04/17 06:50:19;;;;;;;3.75;2.30;;;10.20;92.50;;;;;;5074770;28;20128;-65
2022/04/17 06:52:44;;;;;;;3.85;2.55;;;10.20;93.60;;;;;;5071693;28;20032;-64
2022/04/17 06:55:11;;;;;;;3.25;2.65;;;10.80;93.10;;;;;;5074589;28;20109;-65
2022/04/17 06:57:41;;;;;;;9.23;2.25;;;10.90;93.50;;;;;;5074596;28;20028;-66
2022/04/17 07:00:12;;;;;;;4.00;2.25;;;11.50;92.30;;;;;;5074272;28;20049;-65
2022/04/17 07:02:39;;;;;;;6.97;2.30;;;12.10;92.40;;;;;;5054837;28;20048;-66
2022/04/17 07:05:05;;;;;;;3.40;2.47;;;12.70;92.50;;;;;;5054378;28;20072;-65
2022/04/17 07:07:32;;;;;;;3.40;2.22;;;12.90;90.90;;;;;;5054411;28;20408;-65
2022/04/17 07:09:58;;;;;;;5.32;2.30;;;12.60;90.80;;;;;;5054552;28;20424;-65
2022/04/17 07:12:24;;;;;;;2.80;2.30;;;12.00;91.60;;;;;;5054690;28;20036;-65
2022/04/17 07:14:50;;;;;;;2.60;1.88;;;12.80;91.80;;;;;;5054461;28;20113;-65
2022/04/17 07:17:16;;;;;;;5.45;2.47;;;12.80;91.00;;;;;;5054488;28;20524;-65
2022/04/17 07:19:41;;;;;;;4.07;1.92;;;11.50;90.90;;;;;;5054420;28;20097;-65
2022/04/17 07:22:07;;;;;;;3.80;2.38;;;11.60;90.60;;;;;;5054353;28;20037;-65
2022/04/17 07:24:33;;;;;;;4.45;2.20;;;11.70;91.00;;;;;;5054073;28;20574;-65
2022/04/17 07:27:00;;;;;;;2.53;2.03;;;12.90;90.90;;;;;;5054119;28;20098;-65
2022/04/17 07:29:26;;;;;;;3.05;2.38;;;12.10;89.00;;;;;;5054041;28;20086;-65
2022/04/17 07:31:53;;;;;;;3.97;2.35;;;11.00;90.50;;;;;;5054026;28;20412;-65
2022/04/17 07:34:19;;;;;;;3.40;2.30;;;11.00;91.10;;;;;;5053947;28;20049;-65
2022/04/17 07:37:05;;;;;;;2.92;2.13;;;12.10;90.80;;;;;;5053929;28;20055;-65
2022/04/17 07:39:31;;;;;;;3.40;2.13;;;12.90;91.00;;;;;;5054217;28;20041;-65
2022/04/17 07:41:59;;;;;;;5.93;2.30;;;;;;;;;;5054077;28;20385;-64
2022/04/17 07:44:27;;;;;;;2.70;1.90;;;13.80;88.80;;;;;;5053858;28;20587;-65
2022/04/17 07:46:52;;;;;;;10.50;2.22;;;12.90;88.70;;;;;;5054279;28;20029;-65
2022/04/17 07:49:18;;;;;;;3.40;2.25;;;13.10;88.70;;;;;;5053742;28;20559;-65
2022/04/17 07:51:44;;;;;;;5.53;2.47;;;13.10;88.60;;;;;;5053638;28;20048;-65
2022/04/17 07:54:10;;;;;;;2.50;1.92;;;12.80;88.40;;;;;;5053737;28;20072;-66
2022/04/17 07:56:37;;;;;;;3.72;2.50;;;12.60;89.40;;;;;;5053731;28;20428;-65
2022/04/17 07:59:04;;;;;;;3.35;2.53;;;12.30;89.80;;;;;;5053352;28;20041;-65
2022/04/17 08:01:33;;;;;;;3.65;2.30;;;13.20;91.60;;;;;;5053352;28;20045;-65
2022/04/17 08:03:58;;;;;;;3.17;2.38;;;14.30;88.90;;;;;;5053536;28;20032;-65
2022/04/17 08:06:24;;;;;;;3.10;2.30;;;14.00;87.10;;;;;;5053473;28;20056;-65
2022/04/17 08:08:52;;;;;;;4.57;2.28;;;14.60;86.50;;;;;;5056937;28;20036;-65
2022/04/17 08:11:18;;;;;;;2.50;1.88;;;14.70;87.10;;;;;;5073452;28;20036;-66
2022/04/17 08:13:46;;;;;;;3.83;2.40;;;14.00;84.60;;;;;;5073375;28;20036;-65
2022/04/17 08:16:13;;;;;;;2.42;1.83;;;14.20;89.10;;;;;;5073107;28;20058;-65
2022/04/17 08:18:38;;;;;;;5.45;2.40;;;14.80;88.50;;;;;;5073275;28;20040;-65
2022/04/17 08:21:05;;;;;;;3.65;2.30;;;15.40;87.20;;;;;;5071940;28;20071;-65
2022/04/17 08:23:31;;;;;;;3.70;2.08;;;15.10;88.00;;;;;;5070527;28;20097;-65
2022/04/17 08:25:57;;;;;;;2.63;1.88;;;15.30;91.00;;;;;;5070629;28;20165;-65
2022/04/17 08:28:22;;;;;;;2.45;2.00;;;15.60;88.70;;;;;;5051910;28;20061;-64
2022/04/17 08:30:49;;;;;;;3.25;2.03;;;15.50;86.40;;;;;;5056139;28;20495;-65
2022/04/17 08:33:16;;;;;;;3.85;2.30;;;15.60;88.60;;;;;;5070836;28;20523;-64
2022/04/17 08:35:42;;;;;;;2.92;2.25;;;15.10;84.30;;;;;;5060801;28;20145;-65
2022/04/17 08:38:08;;;;;;;3.35;2.15;;;15.70;88.20;;;;;;5054037;28;20492;-65
2022/04/17 08:40:34;;;;;;;14.70;10.30;;;15.80;86.30;;;;;;5061194;28;20066;-64
2022/04/17 08:43:00;;;;;;;3.47;2.13;;;;;;;;;;5065030;28;20041;-65
2022/04/17 08:45:26;;;;;;;9.52;7.38;;;16.00;99.90;;;;;;5062844;28;20059;-65
2022/04/17 08:47:54;;;;;;;5.47;2.13;;;16.30;95.50;;;;;;5057161;28;20061;-65
2022/04/17 08:50:21;;;;;;;2.55;2.05;;;15.50;90.60;;;;;;5059093;28;20527;-65
2022/04/17 08:52:51;;;;;;;3.45;1.90;;;16.10;88.00;;;;;;5070818;28;20158;-64
2022/04/17 08:55:18;;;;;;;3.50;1.77;;;;;;;;;;5052048;28;20048;-64
2022/04/17 08:57:44;;;;;;;3.30;2.05;;;;;;;;;;5054578;28;20048;-65
2022/04/17 09:00:14;;;;;;;2.03;1.77;;;15.70;99.90;;;;;;5052436;28;20091;-64
2022/04/17 09:02:40;;;;;;;2.22;1.73;;;;;;;;;;5064854;28;20055;-65
2022/04/17 09:05:07;;;;;;;2.67;1.88;;;16.50;99.90;;;;;;5066071;28;20064;-64
2022/04/17 09:07:53;;;;;;;2.17;1.67;;;16.80;88.70;;;;;;5055724;28;20064;-65
2022/04/17 09:10:31;;;;;;;2.53;2.22;;;16.90;88.00;;;;;;5062681;28;20040;-65
2022/04/17 09:12:59;;;;;;;3.45;2.38;;;16.30;84.90;;;;;;5060597;28;20055;-65
2022/04/17 09:15:36;;;;;;;2.20;1.83;;;16.30;85.30;;;;;;5052684;28;20052;-65
2022/04/17 09:18:08;;;;;;;2.50;2.20;;;16.10;85.20;;;;;;5056282;28;20503;-65
2022/04/17 09:20:33;;;;;;;2.67;2.30;;;16.60;85.80;;;;;;5074204;28;20047;-65
2022/04/17 09:23:01;;;;;;;2.90;2.22;;;16.80;88.40;;;;;;5072094;28;20040;-65
2022/04/17 09:25:27;;;;;;;2.47;2.13;;;16.90;91.80;;;;;;5058693;28;20045;-65
2022/04/17 09:28:01;;;;;;;3.20;2.08;;;16.60;85.40;;;;;;5056468;28;20041;-65
2022/04/17 09:30:30;;;;;;;5.20;2.15;;;17.00;88.70;;;;;;5056491;28;20451;-64
2022/04/17 09:32:56;;;;;;;3.20;2.10;;;16.80;84.60;;;;;;5059061;28;20041;-65
2022/04/17 09:35:25;;;;;;;3.20;2.20;;;16.90;81.10;;;;;;5055470;28;20056;-65
2022/04/17 09:37:55;;;;;;;3.28;2.13;;;17.30;96.10;;;;;;5056398;28;20071;-64
2022/04/17 09:40:21;;;;;;;2.88;2.35;;;16.10;95.20;;;;;;5056357;28;20032;-64
2022/04/17 09:42:48;;;;;;;3.55;2.30;;;16.10;95.20;;;;;;5056261;28;20850;-65
2022/04/17 09:45:14;;;;;;;3.40;2.25;;;16.00;95.70;;;;;;5055985;28;20381;-65
2022/04/17 09:47:40;;;;;;;3.78;2.40;;;14.70;82.70;;;;;;5055414;28;20045;-65
2022/04/17 09:50:08;;;;;;;19.25;3.05;;;15.40;84.50;;;;;;5056308;28;20090;-65
2022/04/17 09:52:44;;;;;;;3.35;2.33;;;15.60;85.70;;;;;;5056017;28;20563;-66
2022/04/17 09:55:11;;;;;;;3.28;2.55;;;15.70;84.50;;;;;;5056565;28;20577;-65
2022/04/17 09:57:39;;;;;;;3.67;2.20;;;14.40;84.20;;;;;;5074105;28;20793;-66
2022/04/17 10:00:10;;;;;;;7.97;2.78;;;15.50;85.00;;;;;;5074862;28;20052;-66
2022/04/17 10:02:39;;;;;;;4.75;2.10;;;15.00;84.00;;;;;;5075676;28;20040;-66
2022/04/17 10:05:08;;;;;;;6.83;2.23;;;14.60;86.10;;;;;;5075958;28;20044;-66
2022/04/17 10:07:36;;;;;;;5.97;2.97;;;15.00;87.70;;;;;;5075926;28;20286;-66
2022/04/17 10:10:03;;;;;;;2.55;2.17;;;14.20;85.30;;;;;;5075327;28;20515;-65
2022/04/17 10:12:29;;;;;;;3.13;2.55;;;14.10;86.70;;;;;;5075494;28;20070;-65
2022/04/17 10:14:55;;;;;;;4.68;2.63;;;14.50;85.50;;;;;;5075599;28;20063;-65
2022/04/17 10:17:22;;;;;;;4.35;2.63;;;15.00;85.90;;;;;;5075194;28;20036;-65
2022/04/17 10:19:51;;;;;;;2.92;2.33;;;14.60;86.80;;;;;;5075669;28;20055;-66
2022/04/17 10:22:20;;;;;;;3.25;2.60;;;15.00;86.30;;;;;;5075885;28;20127;-66
2022/04/17 10:24:54;;;;;;;3.95;2.80;;;14.80;85.80;;;;;;5075675;28;20119;-65
2022/04/17 10:27:30;;;;;;;4.55;2.55;;;14.80;87.10;;;;;;5075649;28;20067;-65
2022/04/17 10:30:03;;;;;;;3.10;2.30;;;14.70;86.50;;;;;;5075097;28;20048;-66
2022/04/17 10:32:47;;;;;;;6.53;3.33;;;14.60;85.70;;;;;;5075256;28;20032;-66
2022/04/17 10:35:26;;;;;;;5.32;2.40;;;15.20;87.10;;;;;;5075469;28;20131;-66
2022/04/17 10:38:13;;;;;;;3.08;2.28;;;15.40;88.40;;;;;;5075463;28;20040;-66
2022/04/17 10:40:40;;;;;;;4.75;2.65;;;15.40;84.60;;;;;;5075506;28;20041;-65
2022/04/17 10:43:06;;;;;;;4.20;2.95;;;14.90;84.50;;;;;;5075429;28;20047;-66
2022/04/17 10:45:32;;;;;;;3.05;2.30;;;14.90;84.20;;;;;;5075176;28;20083;-66
2022/04/17 10:48:10;;;;;;;6.05;2.15;;;15.20;84.90;;;;;;5075211;28;20094;-66
2022/04/17 10:50:51;;;;;;;6.28;2.33;;;15.20;85.00;;;;;;5075096;28;20037;-66
2022/04/17 10:53:24;;;;;;;;;;;14.60;84.90;;;;;;5075646;28;20124;-65
2022/04/17 10:56:06;;;;;;;6.70;2.28;;;14.70;86.00;;;;;;5075138;28;19920;-66
2022/04/17 10:58:57;;;;;;;3.97;3.10;;;14.50;84.80;;;;;;5075071;28;20075;-66
2022/04/17 11:01:41;;;;;;;;;;;14.70;86.70;;;;;;5075341;28;20602;-66
2022/04/17 11:04:23;;;;;;;4.07;2.58;;;14.80;86.10;;;;;;5074930;28;19908;-65
2022/04/17 11:07:04;;;;;;;4.90;2.75;;;14.70;86.90;;;;;;5074973;28;20071;-66
2022/04/17 11:09:31;;;;;;;4.25;2.20;;;14.60;85.00;;;;;;5074739;28;20526;-65
2022/04/17 11:12:06;;;;;;;5.13;2.47;;;14.50;85.70;;;;;;5074575;28;20047;-66
2022/04/17 11:14:32;;;;;;;4.40;2.28;;;14.80;83.50;;;;;;5074472;28;20048;-66
2022/04/17 11:17:00;;;;;;;4.40;2.33;;;15.20;86.00;;;;;;5074441;28;20043;-66
2022/04/17 11:19:34;;;;;;;2.58;2.10;;;14.90;84.80;;;;;;5074534;28;20040;-66
2022/04/17 11:22:04;;;;;;;4.45;2.72;;;15.20;85.10;;;;;;5074488;28;20028;-66
2022/04/17 11:24:55;;;;;;;5.00;2.10;;;15.50;84.40;;;;;;5074772;28;20064;-65
2022/04/17 11:27:42;;;;;;;4.22;2.55;;;15.40;85.70;;;;;;5074455;28;20503;-65
2022/04/17 11:30:13;;;;;;;2.85;2.08;;;15.50;83.70;;;;;;5045579;28;20061;-66
2022/04/17 11:32:39;;;;;;;6.43;2.38;;;15.40;83.40;;;;;;5054231;28;20178;-66
2022/04/17 11:35:16;;;;;;;2.60;2.22;;;15.10;85.20;;;;;;5054163;28;20144;-66
2022/04/17 11:37:54;;;;;;;5.32;2.35;;;15.10;84.70;;;;;;5054132;28;20033;-65
2022/04/17 11:40:21;;;;;;;4.15;2.40;;;15.20;85.70;;;;;;5063019;28;20040;-66
2022/04/17 11:42:48;;;;;;;2.45;2.10;;;14.70;82.60;;;;;;5073004;28;20090;-66
2022/04/17 11:45:20;;;;;;;3.25;2.13;;;15.20;83.90;;;;;;5074001;28;20060;-66
2022/04/17 11:47:47;;;;;;;3.40;2.10;;;15.40;85.80;;;;;;5073286;28;20197;-66
2022/04/17 11:50:27;;;;;;;4.80;2.47;;;15.40;84.40;;;;;;5055009;28;20166;-66
2022/04/17 11:52:55;;;;;;;3.10;2.20;;;15.10;84.70;;;;;;5053774;28;20039;-66
2022/04/17 11:55:25;;;;;;;4.13;2.25;;;15.20;85.50;;;;;;5052213;28;20806;-66
2022/04/17 11:57:51;;;;;;;3.20;2.28;;;15.10;85.50;;;;;;5052363;28;20048;-66
2022/04/17 12:00:17;;;;;;;2.38;2.08;;;15.20;85.90;;;;;;5052306;28;20076;-66
2022/04/17 12:02:43;;;;;;;3.28;2.05;;;15.20;85.00;;;;;;5052459;28;20118;-65
2022/04/17 12:05:13;;;;;;;4.45;2.20;;;15.30;84.30;;;;;;5055664;28;20374;-66
2022/04/17 12:07:41;;;;;;;3.97;2.45;;;15.30;84.90;;;;;;5072056;28;20044;-66
2022/04/17 12:10:15;;;;;;;3.83;2.40;;;15.70;85.70;;;;;;5072927;28;20146;-66
2022/04/17 12:12:43;;;;;;;4.45;2.08;;;15.40;83.60;;;;;;5073606;28;20052;-66
2022/04/17 12:15:11;;;;;;;5.75;2.45;;;15.40;85.20;;;;;;5062558;28;20516;-66
2022/04/17 12:17:37;;;;;;;4.80;2.15;;;15.50;82.70;;;;;;5064417;28;20159;-66
2022/04/17 12:20:12;;;;;;;3.00;2.25;;;15.20;83.90;;;;;;5063773;28;20082;-66
2022/04/17 12:22:39;;;;;;;3.95;2.20;;;15.60;85.20;;;;;;5061376;28;20102;-66
2022/04/17 12:25:15;;;;;;;4.50;2.33;;;15.50;83.60;;;;;;5053513;28;20048;-66
2022/04/17 12:27:41;;;;;;;3.53;2.00;;;15.40;82.00;;;;;;5059506;28;20496;-66
2022/04/17 12:30:07;;;;;;;6.13;2.55;;;15.40;83.30;;;;;;5071151;28;20119;-66
2022/04/17 12:32:45;;;;;;;3.20;1.83;;;15.60;82.30;;;;;;5070529;28;20044;-66
2022/04/17 12:35:13;;;;;;;6.45;2.28;;;;;;;;;;5070919;28;20052;-66
2022/04/17 12:37:39;;;;;;;4.78;2.00;;;16.10;95.30;;;;;;5071311;28;20060;-66
2022/04/17 12:40:11;;;;;;;4.18;1.90;;;15.90;92.90;;;;;;5071923;28;20042;-66
2022/04/17 12:42:38;;;;;;;4.32;1.42;;;15.80;91.90;;;;;;5067433;28;20059;-66
2022/04/17 12:45:05;;;;;;;2.67;1.80;;;16.00;91.40;;;;;;5055874;28;20055;-66
2022/04/17 12:47:31;;;;;;;3.35;1.67;;;16.10;91.80;;;;;;5070916;28;20119;-66
2022/04/17 12:50:05;;;;;;;3.92;1.55;;;16.10;91.40;;;;;;5069608;28;20514;-66
2022/04/17 12:52:31;;;;;;;2.92;1.80;;;;;;;;;;5069406;28;20036;-66
2022/04/17 12:55:09;;;;;;;2.78;1.52;;;16.20;78.90;;;;;;5062859;28;20067;-66
2022/04/17 12:57:35;;;;;;;4.40;2.00;;;16.20;77.90;;;;;;5068761;28;20119;-66
2022/04/17 13:00:02;;;;;;;3.55;1.73;;;16.40;78.10;;;;;;5071469;28;20156;-66
2022/04/17 13:02:29;;;;;;;2.42;1.33;;;16.40;77.40;;;;;;5070447;28;20581;-67
2022/04/17 13:04:57;;;;;;;1.70;1.27;;;16.80;77.80;;;;;;5069476;28;20067;-66
2022/04/17 13:07:30;;;;;;;1.50;1.30;;;16.70;75.20;;;;;;5070683;28;20059;-66
2022/04/17 13:09:59;;;;;;;3.08;1.60;;;16.60;74.70;;;;;;5069600;28;20369;-66
2022/04/17 13:12:31;;;;;;;2.45;1.52;;;16.60;74.60;;;;;;5054580;28;20041;-66
2022/04/17 13:14:59;;;;;;;3.17;1.60;;;16.30;77.30;;;;;;5058178;28;20049;-66